sensor_id;sensor_type;location;lat;lon;timestamp;P1;durP1;ratioP1;P2;durP2;ratioP2
19219;SDS011;9744;49.364;7.484;2023-05-15T00:00:50;5.10;;;1.80;;
19219;SDS011;9744;49.364;7.484;2023-05-15T00:03:19;2.58;;;1.38;;
19219;SDS011;9744;49.364;7.484;2023-05-15T00:05:46;1.50;;;1.40;;
19219;SDS011;9744;49.364;7.484;2023-05-15T00:08:15;2.05;;;1.58;;
19219;SDS011;9744;49.364;7.484;2023-05-15T00:10:42;1.55;;;1.40;;
19219;SDS011;9744;49.364;7.484;2023-05-15T00:13:10;2.08;;;1.73;;
19219;SDS011;9744;49.364;7.484;2023-05-15T00:15:37;2.25;;;1.50;;
19219;SDS011;9744;49.364;7.484;2023-05-15T00:18:05;1.60;;;1.50;;
19219;SDS011;9744;49.364;7.484;2023-05-15T00:20:34;3.70;;;1.25;;
19219;SDS011;9744;49.364;7.484;2023-05-15T00:23:01;1.75;;;1.45;;
19219;SDS011;9744;49.364;7.484;2023-05-15T00:25:29;1.85;;;1.50;;
19219;SDS011;9744;49.364;7.484;2023-05-15T00:27:56;1.30;;;1.20;;
19219;SDS011;9744;49.364;7.484;2023-05-15T00:30:24;1.55;;;1.40;;
19219;SDS011;9744;49.364;7.484;2023-05-15T00:32:54;2.00;;;1.58;;
19219;SDS011;9744;49.364;7.484;2023-05-15T00:35:22;1.52;;;1.42;;
19219;SDS011;9744;49.364;7.484;2023-05-15T00:37:51;1.50;;;1.40;;
19219;SDS011;9744;49.364;7.484;2023-05-15T00:40:23;1.85;;;1.60;;
19219;SDS011;9744;49.364;7.484;2023-05-15T00:42:52;1.60;;;1.50;;
19219;SDS011;9744;49.364;7.484;2023-05-15T00:45:22;1.70;;;1.50;;
19219;SDS011;9744;49.364;7.484;2023-05-15T00:47:52;2.17;;;1.88;;
19219;SDS011;9744;49.364;7.484;2023-05-15T00:50:20;3.00;;;1.75;;
19219;SDS011;9744;49.364;7.484;2023-05-15T00:52:49;1.83;;;1.38;;
19219;SDS011;9744;49.364;7.484;2023-05-15T00:55:18;2.22;;;1.50;;
19219;SDS011;9744;49.364;7.484;2023-05-15T00:57:46;1.70;;;1.60;;
19219;SDS011;9744;49.364;7.484;2023-05-15T01:00:14;2.17;;;1.33;;
19219;SDS011;9744;49.364;7.484;2023-05-15T01:02:42;1.42;;;1.33;;
19219;SDS011;9744;49.364;7.484;2023-05-15T01:05:11;1.85;;;1.75;;
19219;SDS011;9744;49.364;7.484;2023-05-15T01:07:40;1.90;;;1.70;;
19219;SDS011;9744;49.364;7.484;2023-05-15T01:10:21;3.33;;;1.70;;
19219;SDS011;9744;49.364;7.484;2023-05-15T01:12:51;1.80;;;1.70;;
19219;SDS011;9744;49.364;7.484;2023-05-15T01:15:20;1.60;;;1.50;;
19219;SDS011;9744;49.364;7.484;2023-05-15T01:17:48;1.50;;;1.40;;
19219;SDS011;9744;49.364;7.484;2023-05-15T01:20:17;1.60;;;1.50;;
19219;SDS011;9744;49.364;7.484;2023-05-15T01:22:48;1.67;;;1.30;;
19219;SDS011;9744;49.364;7.484;2023-05-15T01:25:36;3.10;;;1.63;;
19219;SDS011;9744;49.364;7.484;2023-05-15T01:28:15;2.10;;;1.60;;
19219;SDS011;9744;49.364;7.484;2023-05-15T01:30:48;1.95;;;1.75;;
19219;SDS011;9744;49.364;7.484;2023-05-15T01:33:20;3.70;;;1.45;;
19219;SDS011;9744;49.364;7.484;2023-05-15T01:35:52;1.73;;;1.40;;
19219;SDS011;9744;49.364;7.484;2023-05-15T01:38:27;3.28;;;1.55;;
19219;SDS011;9744;49.364;7.484;2023-05-15T01:41:01;2.33;;;1.50;;
19219;SDS011;9744;49.364;7.484;2023-05-15T01:43:37;1.20;;;1.10;;
19219;SDS011;9744;49.364;7.484;2023-05-15T01:46:08;1.88;;;1.48;;
19219;SDS011;9744;49.364;7.484;2023-05-15T01:48:40;1.90;;;1.10;;
19219;SDS011;9744;49.364;7.484;2023-05-15T01:51:11;1.85;;;1.30;;
19219;SDS011;9744;49.364;7.484;2023-05-15T01:53:40;1.80;;;1.40;;
19219;SDS011;9744;49.364;7.484;2023-05-15T01:56:11;2.05;;;1.73;;
19219;SDS011;9744;49.364;7.484;2023-05-15T01:58:41;1.65;;;1.48;;
19219;SDS011;9744;49.364;7.484;2023-05-15T02:01:10;2.45;;;1.15;;
19219;SDS011;9744;49.364;7.484;2023-05-15T02:03:39;1.65;;;1.42;;
19219;SDS011;9744;49.364;7.484;2023-05-15T02:06:07;1.52;;;1.42;;
19219;SDS011;9744;49.364;7.484;2023-05-15T02:08:36;2.72;;;1.73;;
19219;SDS011;9744;49.364;7.484;2023-05-15T02:11:05;1.83;;;1.63;;
19219;SDS011;9744;49.364;7.484;2023-05-15T02:13:33;1.58;;;1.48;;
19219;SDS011;9744;49.364;7.484;2023-05-15T02:16:02;2.00;;;1.67;;
19219;SDS011;9744;49.364;7.484;2023-05-15T02:18:31;1.83;;;1.30;;
19219;SDS011;9744;49.364;7.484;2023-05-15T02:21:00;1.40;;;1.30;;
19219;SDS011;9744;49.364;7.484;2023-05-15T02:23:28;2.58;;;1.50;;
19219;SDS011;9744;49.364;7.484;2023-05-15T02:26:02;1.45;;;1.33;;
19219;SDS011;9744;49.364;7.484;2023-05-15T02:28:40;2.17;;;1.50;;
19219;SDS011;9744;49.364;7.484;2023-05-15T02:31:16;1.85;;;1.48;;
19219;SDS011;9744;49.364;7.484;2023-05-15T02:33:51;1.40;;;1.30;;
19219;SDS011;9744;49.364;7.484;2023-05-15T02:36:28;3.60;;;1.70;;
19219;SDS011;9744;49.364;7.484;2023-05-15T02:38:59;2.55;;;1.52;;
19219;SDS011;9744;49.364;7.484;2023-05-15T02:41:28;2.72;;;1.40;;
19219;SDS011;9744;49.364;7.484;2023-05-15T02:43:58;1.55;;;1.45;;
19219;SDS011;9744;49.364;7.484;2023-05-15T02:46:28;2.67;;;1.55;;
19219;SDS011;9744;49.364;7.484;2023-05-15T02:48:55;1.65;;;1.55;;
19219;SDS011;9744;49.364;7.484;2023-05-15T02:51:23;2.05;;;1.58;;
19219;SDS011;9744;49.364;7.484;2023-05-15T02:53:51;1.27;;;1.17;;
19219;SDS011;9744;49.364;7.484;2023-05-15T02:56:20;2.03;;;1.80;;
19219;SDS011;9744;49.364;7.484;2023-05-15T02:58:47;1.55;;;1.40;;
19219;SDS011;9744;49.364;7.484;2023-05-15T03:01:15;1.75;;;1.55;;
19219;SDS011;9744;49.364;7.484;2023-05-15T03:03:44;1.65;;;1.55;;
19219;SDS011;9744;49.364;7.484;2023-05-15T03:06:12;1.95;;;1.65;;
19219;SDS011;9744;49.364;7.484;2023-05-15T03:08:39;1.85;;;1.70;;
19219;SDS011;9744;49.364;7.484;2023-05-15T03:11:06;2.05;;;1.48;;
19219;SDS011;9744;49.364;7.484;2023-05-15T03:13:34;2.28;;;1.60;;
19219;SDS011;9744;49.364;7.484;2023-05-15T03:16:04;2.17;;;1.75;;
19219;SDS011;9744;49.364;7.484;2023-05-15T03:18:32;1.52;;;1.42;;
19219;SDS011;9744;49.364;7.484;2023-05-15T03:21:01;2.92;;;1.60;;
19219;SDS011;9744;49.364;7.484;2023-05-15T03:23:28;1.92;;;1.75;;
19219;SDS011;9744;49.364;7.484;2023-05-15T03:25:56;2.22;;;1.63;;
19219;SDS011;9744;49.364;7.484;2023-05-15T03:28:24;1.58;;;1.48;;
19219;SDS011;9744;49.364;7.484;2023-05-15T03:30:51;2.20;;;1.65;;
19219;SDS011;9744;49.364;7.484;2023-05-15T03:33:18;3.03;;;1.40;;
19219;SDS011;9744;49.364;7.484;2023-05-15T03:35:46;4.93;;;1.80;;
19219;SDS011;9744;49.364;7.484;2023-05-15T03:38:16;1.70;;;1.60;;
19219;SDS011;9744;49.364;7.484;2023-05-15T03:40:45;1.67;;;1.58;;
19219;SDS011;9744;49.364;7.484;2023-05-15T03:43:12;3.53;;;1.60;;
19219;SDS011;9744;49.364;7.484;2023-05-15T03:45:40;2.05;;;1.42;;
19219;SDS011;9744;49.364;7.484;2023-05-15T03:48:08;2.58;;;1.70;;
19219;SDS011;9744;49.364;7.484;2023-05-15T03:50:35;1.75;;;1.65;;
19219;SDS011;9744;49.364;7.484;2023-05-15T03:53:03;2.33;;;1.80;;
19219;SDS011;9744;49.364;7.484;2023-05-15T03:55:32;1.88;;;1.70;;
19219;SDS011;9744;49.364;7.484;2023-05-15T03:58:02;2.13;;;1.92;;
19219;SDS011;9744;49.364;7.484;2023-05-15T04:00:30;1.83;;;1.73;;
19219;SDS011;9744;49.364;7.484;2023-05-15T04:02:57;3.53;;;1.77;;
19219;SDS011;9744;49.364;7.484;2023-05-15T04:05:25;2.00;;;1.80;;
19219;SDS011;9744;49.364;7.484;2023-05-15T04:07:52;2.22;;;1.75;;
19219;SDS011;9744;49.364;7.484;2023-05-15T04:10:19;1.75;;;1.63;;
19219;SDS011;9744;49.364;7.484;2023-05-15T04:12:48;1.70;;;1.60;;
19219;SDS011;9744;49.364;7.484;2023-05-15T04:15:17;1.73;;;1.50;;
19219;SDS011;9744;49.364;7.484;2023-05-15T04:17:46;3.42;;;2.08;;
19219;SDS011;9744;49.364;7.484;2023-05-15T04:20:17;5.88;;;2.25;;
19219;SDS011;9744;49.364;7.484;2023-05-15T04:22:48;2.30;;;1.73;;
19219;SDS011;9744;49.364;7.484;2023-05-15T04:25:17;2.97;;;2.25;;
19219;SDS011;9744;49.364;7.484;2023-05-15T04:27:44;3.88;;;2.88;;
19219;SDS011;9744;49.364;7.484;2023-05-15T04:30:14;5.45;;;3.70;;
19219;SDS011;9744;49.364;7.484;2023-05-15T04:32:42;6.25;;;4.05;;
19219;SDS011;9744;49.364;7.484;2023-05-15T04:35:10;6.28;;;4.25;;
19219;SDS011;9744;49.364;7.484;2023-05-15T04:37:38;7.68;;;5.32;;
19219;SDS011;9744;49.364;7.484;2023-05-15T04:40:07;8.07;;;5.60;;
19219;SDS011;9744;49.364;7.484;2023-05-15T04:42:35;9.55;;;6.50;;
19219;SDS011;9744;49.364;7.484;2023-05-15T04:45:02;7.10;;;5.18;;
19219;SDS011;9744;49.364;7.484;2023-05-15T04:47:34;6.20;;;4.10;;
19219;SDS011;9744;49.364;7.484;2023-05-15T04:50:02;6.35;;;4.22;;
19219;SDS011;9744;49.364;7.484;2023-05-15T04:52:31;4.18;;;3.58;;
19219;SDS011;9744;49.364;7.484;2023-05-15T04:54:58;6.07;;;4.65;;
19219;SDS011;9744;49.364;7.484;2023-05-15T04:57:26;3.97;;;2.88;;
19219;SDS011;9744;49.364;7.484;2023-05-15T04:59:54;4.63;;;3.40;;
19219;SDS011;9744;49.364;7.484;2023-05-15T05:02:22;6.25;;;3.30;;
19219;SDS011;9744;49.364;7.484;2023-05-15T05:04:52;5.60;;;3.47;;
19219;SDS011;9744;49.364;7.484;2023-05-15T05:07:19;3.78;;;3.00;;
19219;SDS011;9744;49.364;7.484;2023-05-15T05:09:46;2.60;;;2.40;;
19219;SDS011;9744;49.364;7.484;2023-05-15T05:12:19;4.03;;;2.90;;
19219;SDS011;9744;49.364;7.484;2023-05-15T05:14:48;3.05;;;2.75;;
19219;SDS011;9744;49.364;7.484;2023-05-15T05:17:16;2.95;;;2.65;;
19219;SDS011;9744;49.364;7.484;2023-05-15T05:19:43;4.25;;;2.63;;
19219;SDS011;9744;49.364;7.484;2023-05-15T05:22:12;3.03;;;2.20;;
19219;SDS011;9744;49.364;7.484;2023-05-15T05:24:40;4.15;;;2.83;;
19219;SDS011;9744;49.364;7.484;2023-05-15T05:27:07;3.10;;;2.80;;
19219;SDS011;9744;49.364;7.484;2023-05-15T05:29:35;3.72;;;2.95;;
19219;SDS011;9744;49.364;7.484;2023-05-15T05:32:02;2.75;;;2.53;;
19219;SDS011;9744;49.364;7.484;2023-05-15T05:34:30;4.35;;;3.30;;
19219;SDS011;9744;49.364;7.484;2023-05-15T05:36:57;4.22;;;3.28;;
19219;SDS011;9744;49.364;7.484;2023-05-15T05:39:26;3.35;;;2.70;;
19219;SDS011;9744;49.364;7.484;2023-05-15T05:41:54;4.75;;;3.75;;
19219;SDS011;9744;49.364;7.484;2023-05-15T05:44:23;5.05;;;3.63;;
19219;SDS011;9744;49.364;7.484;2023-05-15T05:46:51;4.38;;;3.78;;
19219;SDS011;9744;49.364;7.484;2023-05-15T05:49:18;7.15;;;3.63;;
19219;SDS011;9744;49.364;7.484;2023-05-15T05:51:45;5.60;;;4.20;;
19219;SDS011;9744;49.364;7.484;2023-05-15T05:54:13;6.38;;;4.07;;
19219;SDS011;9744;49.364;7.484;2023-05-15T05:56:43;8.57;;;4.45;;
19219;SDS011;9744;49.364;7.484;2023-05-15T05:59:11;9.95;;;6.05;;
19219;SDS011;9744;49.364;7.484;2023-05-15T06:01:38;11.60;;;7.13;;
19219;SDS011;9744;49.364;7.484;2023-05-15T06:04:06;10.25;;;7.32;;
19219;SDS011;9744;49.364;7.484;2023-05-15T06:06:35;9.57;;;6.22;;
19219;SDS011;9744;49.364;7.484;2023-05-15T06:09:02;11.57;;;6.05;;
19219;SDS011;9744;49.364;7.484;2023-05-15T06:11:30;7.03;;;5.90;;
19219;SDS011;9744;49.364;7.484;2023-05-15T06:13:59;8.93;;;6.25;;
19219;SDS011;9744;49.364;7.484;2023-05-15T06:16:26;9.38;;;6.15;;
19219;SDS011;9744;49.364;7.484;2023-05-15T06:18:54;7.28;;;5.55;;
19219;SDS011;9744;49.364;7.484;2023-05-15T06:21:21;10.60;;;6.97;;
19219;SDS011;9744;49.364;7.484;2023-05-15T06:23:49;12.10;;;7.53;;
19219;SDS011;9744;49.364;7.484;2023-05-15T06:26:17;12.43;;;8.30;;
19219;SDS011;9744;49.364;7.484;2023-05-15T06:28:46;10.88;;;7.97;;
19219;SDS011;9744;49.364;7.484;2023-05-15T06:31:15;13.45;;;7.65;;
19219;SDS011;9744;49.364;7.484;2023-05-15T06:33:42;7.90;;;6.25;;
19219;SDS011;9744;49.364;7.484;2023-05-15T06:36:10;9.85;;;6.20;;
19219;SDS011;9744;49.364;7.484;2023-05-15T06:38:37;7.43;;;5.80;;
19219;SDS011;9744;49.364;7.484;2023-05-15T06:41:05;8.02;;;5.32;;
19219;SDS011;9744;49.364;7.484;2023-05-15T06:43:40;7.03;;;4.47;;
19219;SDS011;9744;49.364;7.484;2023-05-15T06:46:08;7.78;;;6.45;;
19219;SDS011;9744;49.364;7.484;2023-05-15T06:48:38;7.10;;;5.20;;
19219;SDS011;9744;49.364;7.484;2023-05-15T06:51:05;7.63;;;5.18;;
19219;SDS011;9744;49.364;7.484;2023-05-15T06:53:32;6.13;;;4.72;;
19219;SDS011;9744;49.364;7.484;2023-05-15T06:56:00;5.97;;;4.40;;
19219;SDS011;9744;49.364;7.484;2023-05-15T06:58:27;4.40;;;3.83;;
19219;SDS011;9744;49.364;7.484;2023-05-15T07:00:54;8.80;;;4.75;;
19219;SDS011;9744;49.364;7.484;2023-05-15T07:03:22;5.03;;;4.18;;
19219;SDS011;9744;49.364;7.484;2023-05-15T07:05:52;4.90;;;3.67;;
19219;SDS011;9744;49.364;7.484;2023-05-15T07:08:19;4.45;;;3.38;;
19219;SDS011;9744;49.364;7.484;2023-05-15T07:10:47;4.68;;;3.33;;
19219;SDS011;9744;49.364;7.484;2023-05-15T07:13:15;6.05;;;3.15;;
19219;SDS011;9744;49.364;7.484;2023-05-15T07:15:42;4.13;;;3.45;;
19219;SDS011;9744;49.364;7.484;2023-05-15T07:18:10;6.78;;;5.15;;
19219;SDS011;9744;49.364;7.484;2023-05-15T07:20:38;7.88;;;5.07;;
19219;SDS011;9744;49.364;7.484;2023-05-15T07:23:07;10.45;;;5.40;;
19219;SDS011;9744;49.364;7.484;2023-05-15T07:25:35;7.50;;;5.80;;
19219;SDS011;9744;49.364;7.484;2023-05-15T07:28:02;7.65;;;4.82;;
19219;SDS011;9744;49.364;7.484;2023-05-15T07:30:30;4.90;;;3.88;;
19219;SDS011;9744;49.364;7.484;2023-05-15T07:32:58;3.72;;;3.42;;
19219;SDS011;9744;49.364;7.484;2023-05-15T07:35:25;5.50;;;4.60;;
19219;SDS011;9744;49.364;7.484;2023-05-15T07:37:52;6.15;;;4.68;;
19219;SDS011;9744;49.364;7.484;2023-05-15T07:40:21;5.50;;;3.80;;
19219;SDS011;9744;49.364;7.484;2023-05-15T07:42:48;4.85;;;3.13;;
19219;SDS011;9744;49.364;7.484;2023-05-15T07:45:15;5.85;;;3.33;;
19219;SDS011;9744;49.364;7.484;2023-05-15T07:47:43;4.15;;;3.50;;
19219;SDS011;9744;49.364;7.484;2023-05-15T07:50:11;8.27;;;3.10;;
19219;SDS011;9744;49.364;7.484;2023-05-15T07:52:39;3.42;;;2.80;;
19219;SDS011;9744;49.364;7.484;2023-05-15T07:55:07;3.25;;;2.92;;
19219;SDS011;9744;49.364;7.484;2023-05-15T07:57:38;3.40;;;2.90;;
19219;SDS011;9744;49.364;7.484;2023-05-15T08:00:06;3.78;;;2.78;;
19219;SDS011;9744;49.364;7.484;2023-05-15T08:02:38;3.95;;;2.85;;
19219;SDS011;9744;49.364;7.484;2023-05-15T08:05:05;3.50;;;3.20;;
19219;SDS011;9744;49.364;7.484;2023-05-15T08:07:34;5.78;;;3.25;;
19219;SDS011;9744;49.364;7.484;2023-05-15T08:10:05;4.55;;;2.90;;
19219;SDS011;9744;49.364;7.484;2023-05-15T08:12:33;3.17;;;2.72;;
19219;SDS011;9744;49.364;7.484;2023-05-15T08:15:02;3.65;;;2.90;;
19219;SDS011;9744;49.364;7.484;2023-05-15T08:17:30;3.50;;;2.78;;
19219;SDS011;9744;49.364;7.484;2023-05-15T08:19:58;3.33;;;3.00;;
19219;SDS011;9744;49.364;7.484;2023-05-15T08:22:26;3.88;;;2.88;;
19219;SDS011;9744;49.364;7.484;2023-05-15T08:24:54;3.33;;;2.90;;
19219;SDS011;9744;49.364;7.484;2023-05-15T08:27:22;5.32;;;2.90;;
19219;SDS011;9744;49.364;7.484;2023-05-15T08:29:52;6.05;;;2.58;;
19219;SDS011;9744;49.364;7.484;2023-05-15T08:32:23;3.15;;;2.50;;
19219;SDS011;9744;49.364;7.484;2023-05-15T08:34:51;4.22;;;2.80;;
19219;SDS011;9744;49.364;7.484;2023-05-15T08:37:18;2.80;;;2.42;;
19219;SDS011;9744;49.364;7.484;2023-05-15T08:39:45;6.35;;;2.38;;
19219;SDS011;9744;49.364;7.484;2023-05-15T08:42:13;3.90;;;2.30;;
19219;SDS011;9744;49.364;7.484;2023-05-15T08:44:47;4.63;;;2.40;;
19219;SDS011;9744;49.364;7.484;2023-05-15T08:47:16;3.92;;;2.38;;
19219;SDS011;9744;49.364;7.484;2023-05-15T08:49:50;2.65;;;2.15;;
19219;SDS011;9744;49.364;7.484;2023-05-15T08:54:58;3.97;;;2.17;;
19219;SDS011;9744;49.364;7.484;2023-05-15T08:57:25;1.80;;;1.70;;
19219;SDS011;9744;49.364;7.484;2023-05-15T08:59:53;4.10;;;2.00;;
19219;SDS011;9744;49.364;7.484;2023-05-15T09:02:21;6.55;;;2.00;;
19219;SDS011;9744;49.364;7.484;2023-05-15T09:04:51;4.82;;;2.40;;
19219;SDS011;9744;49.364;7.484;2023-05-15T09:07:18;3.50;;;2.30;;
19219;SDS011;9744;49.364;7.484;2023-05-15T09:09:46;3.25;;;2.75;;
19219;SDS011;9744;49.364;7.484;2023-05-15T09:12:13;3.08;;;2.55;;
19219;SDS011;9744;49.364;7.484;2023-05-15T09:14:46;2.40;;;2.20;;
19219;SDS011;9744;49.364;7.484;2023-05-15T09:17:13;1.88;;;1.58;;
19219;SDS011;9744;49.364;7.484;2023-05-15T09:19:42;5.80;;;1.80;;
19219;SDS011;9744;49.364;7.484;2023-05-15T09:22:14;2.97;;;2.50;;
19219;SDS011;9744;49.364;7.484;2023-05-15T09:24:43;2.20;;;2.00;;
19219;SDS011;9744;49.364;7.484;2023-05-15T09:27:20;4.95;;;2.40;;
19219;SDS011;9744;49.364;7.484;2023-05-15T09:29:47;5.18;;;1.90;;
19219;SDS011;9744;49.364;7.484;2023-05-15T09:32:18;2.63;;;2.17;;
19219;SDS011;9744;49.364;7.484;2023-05-15T09:34:45;4.10;;;2.22;;
19219;SDS011;9744;49.364;7.484;2023-05-15T09:37:28;1.75;;;1.52;;
19219;SDS011;9744;49.364;7.484;2023-05-15T09:40:07;2.55;;;1.70;;
19219;SDS011;9744;49.364;7.484;2023-05-15T09:42:36;1.63;;;1.52;;
19219;SDS011;9744;49.364;7.484;2023-05-15T09:45:05;2.25;;;1.75;;
19219;SDS011;9744;49.364;7.484;2023-05-15T09:47:44;2.20;;;1.63;;
19219;SDS011;9744;49.364;7.484;2023-05-15T09:50:12;2.10;;;1.92;;
19219;SDS011;9744;49.364;7.484;2023-05-15T09:52:48;4.10;;;2.30;;
19219;SDS011;9744;49.364;7.484;2023-05-15T09:58:11;3.47;;;2.70;;
19219;SDS011;9744;49.364;7.484;2023-05-15T10:00:40;3.85;;;2.40;;
19219;SDS011;9744;49.364;7.484;2023-05-15T10:03:09;3.42;;;3.13;;
19219;SDS011;9744;49.364;7.484;2023-05-15T10:05:36;6.13;;;3.00;;
19219;SDS011;9744;49.364;7.484;2023-05-15T10:08:06;3.80;;;3.17;;
19219;SDS011;9744;49.364;7.484;2023-05-15T10:10:33;3.95;;;2.90;;
19219;SDS011;9744;49.364;7.484;2023-05-15T10:13:00;2.80;;;2.60;;
19219;SDS011;9744;49.364;7.484;2023-05-15T10:15:30;5.72;;;2.45;;
19219;SDS011;9744;49.364;7.484;2023-05-15T10:17:58;3.92;;;3.00;;
19219;SDS011;9744;49.364;7.484;2023-05-15T10:20:30;5.32;;;4.47;;
19219;SDS011;9744;49.364;7.484;2023-05-15T10:23:00;6.28;;;3.55;;
19219;SDS011;9744;49.364;7.484;2023-05-15T10:25:36;3.65;;;3.28;;
19219;SDS011;9744;49.364;7.484;2023-05-15T10:28:09;5.00;;;4.22;;
19219;SDS011;9744;49.364;7.484;2023-05-15T10:30:37;5.15;;;3.45;;
19219;SDS011;9744;49.364;7.484;2023-05-15T10:33:05;4.80;;;2.67;;
19219;SDS011;9744;49.364;7.484;2023-05-15T10:35:34;5.45;;;4.28;;
19219;SDS011;9744;49.364;7.484;2023-05-15T10:38:03;4.75;;;4.10;;
19219;SDS011;9744;49.364;7.484;2023-05-15T10:40:33;4.68;;;4.18;;
19219;SDS011;9744;49.364;7.484;2023-05-15T10:43:03;7.03;;;4.53;;
19219;SDS011;9744;49.364;7.484;2023-05-15T10:45:31;4.15;;;3.60;;
19219;SDS011;9744;49.364;7.484;2023-05-15T10:48:00;3.15;;;2.90;;
19219;SDS011;9744;49.364;7.484;2023-05-15T10:50:29;8.20;;;3.13;;
19219;SDS011;9744;49.364;7.484;2023-05-15T10:52:57;2.50;;;2.30;;
19219;SDS011;9744;49.364;7.484;2023-05-15T10:55:25;4.63;;;2.60;;
19219;SDS011;9744;49.364;7.484;2023-05-15T10:57:54;4.32;;;3.42;;
19219;SDS011;9744;49.364;7.484;2023-05-15T11:00:25;3.17;;;2.80;;
19219;SDS011;9744;49.364;7.484;2023-05-15T11:02:55;5.68;;;4.07;;
19219;SDS011;9744;49.364;7.484;2023-05-15T11:05:23;6.32;;;4.78;;
19219;SDS011;9744;49.364;7.484;2023-05-15T11:10:51;11.45;;;4.53;;
19219;SDS011;9744;49.364;7.484;2023-05-15T11:13:20;7.45;;;4.85;;
19219;SDS011;9744;49.364;7.484;2023-05-15T11:15:47;5.80;;;4.97;;
19219;SDS011;9744;49.364;7.484;2023-05-15T11:18:15;6.90;;;5.07;;
19219;SDS011;9744;49.364;7.484;2023-05-15T11:21:04;6.85;;;3.88;;
19219;SDS011;9744;49.364;7.484;2023-05-15T11:26:31;5.57;;;4.93;;
19219;SDS011;9744;49.364;7.484;2023-05-15T11:29:10;5.40;;;3.80;;
19219;SDS011;9744;49.364;7.484;2023-05-15T11:31:43;4.32;;;3.55;;
19219;SDS011;9744;49.364;7.484;2023-05-15T11:34:10;7.90;;;3.83;;
19219;SDS011;9744;49.364;7.484;2023-05-15T11:36:39;6.53;;;4.13;;
19219;SDS011;9744;49.364;7.484;2023-05-15T11:39:08;4.90;;;4.20;;
19219;SDS011;9744;49.364;7.484;2023-05-15T11:41:37;5.68;;;3.00;;
19219;SDS011;9744;49.364;7.484;2023-05-15T11:44:05;6.47;;;3.92;;
19219;SDS011;9744;49.364;7.484;2023-05-15T11:46:34;3.47;;;3.17;;
19219;SDS011;9744;49.364;7.484;2023-05-15T11:49:02;2.90;;;2.60;;
19219;SDS011;9744;49.364;7.484;2023-05-15T11:51:29;3.90;;;3.60;;
19219;SDS011;9744;49.364;7.484;2023-05-15T11:53:57;6.22;;;3.28;;
19219;SDS011;9744;49.364;7.484;2023-05-15T11:56:26;6.57;;;3.50;;
19219;SDS011;9744;49.364;7.484;2023-05-15T11:58:54;4.00;;;3.55;;
19219;SDS011;9744;49.364;7.484;2023-05-15T12:01:22;9.90;;;4.65;;
19219;SDS011;9744;49.364;7.484;2023-05-15T12:03:56;4.80;;;3.35;;
19219;SDS011;9744;49.364;7.484;2023-05-15T12:06:23;5.07;;;2.90;;
19219;SDS011;9744;49.364;7.484;2023-05-15T12:08:52;7.05;;;3.88;;
19219;SDS011;9744;49.364;7.484;2023-05-15T12:11:20;11.10;;;3.88;;
19219;SDS011;9744;49.364;7.484;2023-05-15T12:13:50;5.90;;;3.10;;
19219;SDS011;9744;49.364;7.484;2023-05-15T12:16:22;3.45;;;3.15;;
19219;SDS011;9744;49.364;7.484;2023-05-15T12:18:51;3.35;;;3.00;;
19219;SDS011;9744;49.364;7.484;2023-05-15T12:21:20;3.05;;;2.75;;
19219;SDS011;9744;49.364;7.484;2023-05-15T12:23:49;3.63;;;2.67;;
19219;SDS011;9744;49.364;7.484;2023-05-15T12:26:17;3.25;;;2.67;;
19219;SDS011;9744;49.364;7.484;2023-05-15T12:28:46;3.65;;;2.83;;
19219;SDS011;9744;49.364;7.484;2023-05-15T12:31:14;4.22;;;3.13;;
19219;SDS011;9744;49.364;7.484;2023-05-15T12:33:43;4.57;;;3.38;;
19219;SDS011;9744;49.364;7.484;2023-05-15T12:36:11;6.82;;;3.50;;
19219;SDS011;9744;49.364;7.484;2023-05-15T12:38:40;6.88;;;3.83;;
19219;SDS011;9744;49.364;7.484;2023-05-15T12:41:09;7.50;;;4.13;;
19219;SDS011;9744;49.364;7.484;2023-05-15T12:43:37;5.97;;;4.57;;
19219;SDS011;9744;49.364;7.484;2023-05-15T12:46:05;4.45;;;3.83;;
19219;SDS011;9744;49.364;7.484;2023-05-15T12:48:46;5.35;;;4.28;;
19219;SDS011;9744;49.364;7.484;2023-05-15T12:51:20;7.55;;;4.10;;
19219;SDS011;9744;49.364;7.484;2023-05-15T12:53:51;4.65;;;4.10;;
19219;SDS011;9744;49.364;7.484;2023-05-15T12:56:18;6.25;;;4.45;;
19219;SDS011;9744;49.364;7.484;2023-05-15T12:58:46;6.00;;;4.38;;
19219;SDS011;9744;49.364;7.484;2023-05-15T13:01:13;4.75;;;2.70;;
19219;SDS011;9744;49.364;7.484;2023-05-15T13:03:43;4.80;;;3.08;;
19219;SDS011;9744;49.364;7.484;2023-05-15T13:06:10;4.13;;;3.40;;
19219;SDS011;9744;49.364;7.484;2023-05-15T13:08:39;5.05;;;3.40;;
19219;SDS011;9744;49.364;7.484;2023-05-15T13:11:11;7.15;;;3.80;;
19219;SDS011;9744;49.364;7.484;2023-05-15T13:13:46;5.15;;;4.15;;
19219;SDS011;9744;49.364;7.484;2023-05-15T13:16:18;3.97;;;3.58;;
19219;SDS011;9744;49.364;7.484;2023-05-15T13:18:47;6.70;;;3.80;;
19219;SDS011;9744;49.364;7.484;2023-05-15T13:21:14;7.95;;;4.57;;
19219;SDS011;9744;49.364;7.484;2023-05-15T13:23:42;6.47;;;3.88;;
19219;SDS011;9744;49.364;7.484;2023-05-15T13:26:11;5.22;;;4.25;;
19219;SDS011;9744;49.364;7.484;2023-05-15T13:28:39;7.38;;;4.38;;
19219;SDS011;9744;49.364;7.484;2023-05-15T13:31:06;5.60;;;4.63;;
19219;SDS011;9744;49.364;7.484;2023-05-15T13:33:41;5.63;;;4.85;;
19219;SDS011;9744;49.364;7.484;2023-05-15T13:36:12;8.13;;;5.05;;
19219;SDS011;9744;49.364;7.484;2023-05-15T13:38:39;8.63;;;4.05;;
19219;SDS011;9744;49.364;7.484;2023-05-15T13:41:08;5.22;;;3.28;;
19219;SDS011;9744;49.364;7.484;2023-05-15T13:43:37;7.00;;;4.07;;
19219;SDS011;9744;49.364;7.484;2023-05-15T13:46:04;5.45;;;4.57;;
19219;SDS011;9744;49.364;7.484;2023-05-15T13:48:32;6.72;;;4.63;;
19219;SDS011;9744;49.364;7.484;2023-05-15T13:50:59;8.13;;;4.22;;
19219;SDS011;9744;49.364;7.484;2023-05-15T13:53:26;4.20;;;3.65;;
19219;SDS011;9744;49.364;7.484;2023-05-15T13:55:54;6.38;;;4.25;;
19219;SDS011;9744;49.364;7.484;2023-05-15T13:58:21;5.32;;;3.97;;
19219;SDS011;9744;49.364;7.484;2023-05-15T14:00:52;5.13;;;3.47;;
19219;SDS011;9744;49.364;7.484;2023-05-15T14:03:21;5.10;;;3.60;;
19219;SDS011;9744;49.364;7.484;2023-05-15T14:05:48;6.05;;;3.60;;
19219;SDS011;9744;49.364;7.484;2023-05-15T14:08:16;5.28;;;3.42;;
19219;SDS011;9744;49.364;7.484;2023-05-15T14:10:44;5.50;;;4.00;;
19219;SDS011;9744;49.364;7.484;2023-05-15T14:13:11;6.38;;;3.92;;
19219;SDS011;9744;49.364;7.484;2023-05-15T14:15:38;7.13;;;4.15;;
19219;SDS011;9744;49.364;7.484;2023-05-15T14:18:07;8.07;;;4.57;;
19219;SDS011;9744;49.364;7.484;2023-05-15T14:20:34;6.45;;;5.80;;
19219;SDS011;9744;49.364;7.484;2023-05-15T14:23:01;5.15;;;4.20;;
19219;SDS011;9744;49.364;7.484;2023-05-15T14:25:29;7.07;;;4.38;;
19219;SDS011;9744;49.364;7.484;2023-05-15T14:27:56;4.63;;;4.22;;
19219;SDS011;9744;49.364;7.484;2023-05-15T14:30:24;7.97;;;5.63;;
19219;SDS011;9744;49.364;7.484;2023-05-15T14:32:51;9.65;;;5.97;;
19219;SDS011;9744;49.364;7.484;2023-05-15T14:35:20;6.55;;;5.53;;
19219;SDS011;9744;49.364;7.484;2023-05-15T14:37:47;9.15;;;6.00;;
19219;SDS011;9744;49.364;7.484;2023-05-15T14:40:15;7.63;;;5.82;;
19219;SDS011;9744;49.364;7.484;2023-05-15T14:42:42;7.38;;;5.90;;
19219;SDS011;9744;49.364;7.484;2023-05-15T14:45:09;7.40;;;6.13;;
19219;SDS011;9744;49.364;7.484;2023-05-15T14:47:37;6.45;;;5.85;;
19219;SDS011;9744;49.364;7.484;2023-05-15T14:50:05;11.15;;;5.30;;
19219;SDS011;9744;49.364;7.484;2023-05-15T14:52:35;10.00;;;6.05;;
19219;SDS011;9744;49.364;7.484;2023-05-15T14:55:03;6.82;;;4.70;;
19219;SDS011;9744;49.364;7.484;2023-05-15T14:57:32;7.07;;;4.35;;
19219;SDS011;9744;49.364;7.484;2023-05-15T14:59:59;7.60;;;5.32;;
19219;SDS011;9744;49.364;7.484;2023-05-15T15:02:28;6.68;;;4.85;;
19219;SDS011;9744;49.364;7.484;2023-05-15T15:04:55;5.78;;;4.85;;
19219;SDS011;9744;49.364;7.484;2023-05-15T15:07:25;8.20;;;5.43;;
19219;SDS011;9744;49.364;7.484;2023-05-15T15:09:55;7.65;;;5.60;;
19219;SDS011;9744;49.364;7.484;2023-05-15T15:12:22;7.40;;;5.60;;
19219;SDS011;9744;49.364;7.484;2023-05-15T15:14:51;5.53;;;4.63;;
19219;SDS011;9744;49.364;7.484;2023-05-15T15:17:18;5.20;;;4.30;;
19219;SDS011;9744;49.364;7.484;2023-05-15T15:19:46;5.53;;;4.90;;
19219;SDS011;9744;49.364;7.484;2023-05-15T15:22:13;7.35;;;6.10;;